Time;durP1;ratioP1;P1;durP2;ratioP2;P2;SDS_P1;SDS_P2;PMS_P1;PMS_P2;Temp;Humidity;BMP_temperature;BMP_pressure;BME280_temperature;BME280_humidity;BME280_pressure;Samples;Min_cycle;Max_cycle;Signal;HPM_P1;HPM_P2
2022/05/04 00:00:09;;;;;;;;;;;;;;;12.55;64.94;100171.06;5038756;28;20351;-68
2022/05/04 00:02:58;;;;;;;;;;;;;;;12.54;64.96;100174.53;5058679;28;19928;-68
2022/05/04 00:05:51;;;;;;;;;;;;;;;12.54;64.97;100169.31;5058801;28;20013;-69
2022/05/04 00:08:43;;;;;;;;;;;;;;;12.54;64.96;100174.53;5058714;28;19947;-67
2022/05/04 00:11:28;;;;;;;;;;;;;;;12.53;64.96;100175.38;5058887;28;19975;-67
2022/05/04 00:14:12;;;;;;;;;;;;;;;12.53;65.25;100177.13;5073697;28;20004;-68
2022/05/04 00:17:02;;;;;;;;;;;;;;;12.54;65.04;100178.84;5058534;28;19928;-68
2022/05/04 00:19:54;;;;;;;;;;;;;;;12.52;64.97;100165.81;5058671;28;19927;-68
2022/05/04 00:22:43;;;;;;;;;;;;;;;12.53;65.13;100158.91;5057859;28;19928;-68
2022/05/04 00:25:33;;;;;;;;;;;;;;;12.51;65.27;100164.09;5073848;28;20390;-67
2022/05/04 00:28:20;;;;;;;;;;;;;;;12.52;65.08;100159.78;5058802;28;19962;-68
2022/05/04 00:31:12;;;;;;;;;;;;;;;12.49;64.96;100164.09;5058330;28;19971;-68
2022/05/04 00:33:59;;;;;;;;;;;;;;;12.49;65.04;100164.09;5058821;28;19977;-68
2022/05/04 00:36:43;;;;;;;;;;;;;;;12.47;65.09;100162.31;5073235;28;19927;-67
2022/05/04 00:39:30;;;;;;;;;;;;;;;12.48;65.31;100164.94;5073761;28;20337;-68
2022/05/04 00:42:17;;;;;;;;;;;;;;;12.47;65.09;100163.19;5058455;28;19998;-68
2022/05/04 00:45:07;;;;;;;;;;;;;;;12.46;65.17;100171.84;5058577;28;19927;-68
2022/05/04 00:47:54;;;;;;;;;;;;;;;12.45;65.27;100164.91;5058620;28;20287;-68
2022/05/04 00:50:38;;;;;;;;;;;;;;;12.45;65.29;100167.50;5073088;28;19974;-68
2022/05/04 00:53:28;;;;;;;;;;;;;;;12.45;65.10;100159.69;5058649;28;20398;-68
2022/05/04 00:56:16;;;;;;;;;;;;;;;12.45;65.47;100170.09;5057371;28;19974;-68
2022/05/04 00:59:02;;;;;;;;;;;;;;;12.46;65.17;100165.75;5073061;28;19978;-68
2022/05/04 01:01:55;;;;;;;;;;;;;;;12.45;65.18;100156.25;5072899;28;19927;-68
2022/05/04 01:04:39;;;;;;;;;;;;;;;12.44;65.24;100155.34;5058098;28;19927;-68
2022/05/04 01:07:31;;;;;;;;;;;;;;;12.43;65.07;100156.22;5072475;28;19927;-68
2022/05/04 01:10:18;;;;;;;;;;;;;;;12.43;65.16;100150.16;5073005;28;20062;-68
2022/05/04 01:13:13;;;;;;;;;;;;;;;12.42;65.07;100156.22;5072901;28;19928;-68
2022/05/04 01:16:03;;;;;;;;;;;;;;;12.41;65.28;100155.31;5057847;28;19927;-68
2022/05/04 01:18:49;;;;;;;;;;;;;;;12.42;65.30;100156.22;5057906;28;19927;-68
2022/05/04 01:21:41;;;;;;;;;;;;;;;12.41;65.55;100163.13;5057852;28;20469;-68
2022/05/04 01:24:34;;;;;;;;;;;;;;;12.41;65.41;100163.13;5058378;28;19928;-68
2022/05/04 01:27:18;;;;;;;;;;;;;;;12.42;65.24;100166.59;5073154;28;19970;-66
2022/05/04 01:30:05;;;;;;;;;;;;;;;12.42;65.45;100164.00;5073314;28;19963;-68
2022/05/04 01:32:52;;;;;;;;;;;;;;;12.41;65.44;100165.72;5058584;28;19930;-68
2022/05/04 01:35:41;;;;;;;;;;;;;;;12.40;65.42;100166.56;5074723;28;19966;-68
2022/05/04 01:38:31;;;;;;;;;;;;;;;12.39;65.64;100170.03;5061977;28;19979;-68
2022/05/04 01:44:24;;;;;;;;;;;;;;;12.40;65.46;100170.91;5076383;28;20006;-68
2022/05/04 01:47:14;;;;;;;;;;;;;;;12.39;65.28;100174.38;5075152;28;19946;-68
2022/05/04 01:50:03;;;;;;;;;;;;;;;12.39;65.20;100174.38;5061221;28;19927;-68
2022/05/04 01:52:47;;;;;;;;;;;;;;;12.38;65.79;100170.03;5076772;28;20015;-68
2022/05/04 01:55:41;;;;;;;;;;;;;;;12.37;65.40;100171.75;5076638;28;19927;-68
2022/05/04 01:58:36;;;;;;;;;;;;;;;12.37;65.51;100169.16;5061167;28;19932;-68
2022/05/04 02:01:28;;;;;;;;;;;;;;;12.36;65.36;100164.81;5061214;28;19927;-68
2022/05/04 02:04:13;;;;;;;;;;;;;;;12.36;65.38;100159.63;5061069;28;19930;-68
2022/05/04 02:06:57;;;;;;;;;;;;;;;12.35;65.31;100168.28;5075969;28;19966;-68
2022/05/04 02:09:44;;;;;;;;;;;;;;;12.34;65.35;100163.94;5076134;28;20325;-68
2022/05/04 02:12:37;;;;;;;;;;;;;;;12.32;65.53;100166.50;5061193;28;20398;-68
2022/05/04 02:15:27;;;;;;;;;;;;;;;12.32;65.50;100171.69;5061222;28;19967;-68
2022/05/04 02:18:11;;;;;;;;;;;;;;;12.32;65.50;100168.22;5076116;28;19963;-68
2022/05/04 02:20:55;;;;;;;;;;;;;;;12.31;65.71;100164.75;5076763;28;19931;-69
2022/05/04 02:23:44;;;;;;;;;;;;;;;12.31;65.35;100172.53;5060649;28;20028;-68
2022/05/04 02:26:36;;;;;;;;;;;;;;;12.30;65.48;100165.59;5075025;28;19966;-68
2022/05/04 02:29:25;;;;;;;;;;;;;;;12.29;65.85;100166.47;5060497;28;19969;-68
2022/05/04 02:32:15;;;;;;;;;;;;;;;12.30;65.39;100159.53;5060618;28;19927;-68
2022/05/04 02:38:08;;;;;;;;;;;;;;;12.29;65.80;100168.19;5075484;28;20401;-68
2022/05/04 02:40:57;;;;;;;;;;;;;;;12.27;65.43;100160.38;5060254;28;20444;-68
2022/05/04 02:43:46;;;;;;;;;;;;;;;12.28;65.32;100159.53;5060126;28;19989;-68
2022/05/04 02:46:30;;;;;;;;;;;;;;;12.27;65.47;100157.78;5073769;28;20026;-68
2022/05/04 02:49:22;;;;;;;;;;;;;;;12.27;65.50;100159.50;5075224;28;19928;-69
2022/05/04 02:52:12;;;;;;;;;;;;;;;12.25;65.37;100146.50;5059904;28;20295;-69
2022/05/04 02:55:03;;;;;;;;;;;;;;;12.24;65.52;100142.16;5059818;28;19966;-68
2022/05/04 02:57:56;;;;;;;;;;;;;;;12.25;65.56;100141.31;5059982;28;19989;-68
2022/05/04 03:00:46;;;;;;;;;;;;;;;12.24;65.56;100143.88;5075937;28;19931;-69
2022/05/04 03:03:38;;;;;;;;;;;;;;;12.23;65.84;100140.41;5074941;28;20018;-68
2022/05/04 03:06:33;;;;;;;;;;;;;;;12.23;65.46;100147.31;5060111;28;19975;-68
2022/05/04 03:09:25;;;;;;;;;;;;;;;12.22;65.57;100143.88;5075158;28;19966;-68
2022/05/04 03:12:12;;;;;;;;;;;;;;;12.22;65.57;100137.81;5059615;28;19943;-68
2022/05/04 03:14:56;;;;;;;;;;;;;;;12.22;65.62;100141.28;5075087;28;19927;-68
2022/05/04 03:17:43;;;;;;;;;;;;;;;12.22;65.50;100148.22;5074827;28;20054;-68
2022/05/04 03:20:30;;;;;;;;;;;;;;;12.20;65.35;100142.13;5059499;28;19927;-68
2022/05/04 03:23:20;;;;;;;;;;;;;;;12.20;65.42;100142.13;5074532;28;19928;-68
2022/05/04 03:26:16;;;;;;;;;;;;;;;12.18;65.82;100142.97;5059904;28;19927;-68
2022/05/04 03:29:08;;;;;;;;;;;;;;;12.16;65.84;100143.78;5059192;28;19982;-68
2022/05/04 03:32:00;;;;;;;;;;;;;;;12.16;65.57;100141.19;5059059;28;19927;-68
2022/05/04 03:34:50;;;;;;;;;;;;;;;12.15;65.72;100139.44;5059487;28;19974;-68
2022/05/04 03:37:37;;;;;;;;;;;;;;;12.15;65.79;100142.03;5058864;28;19927;-68
2022/05/04 03:40:21;;;;;;;;;;;;;;;12.14;65.54;100142.94;5059242;28;19947;-68
2022/05/04 03:43:14;;;;;;;;;;;;;;;12.14;65.62;100140.31;5059160;28;19978;-68
2022/05/04 03:46:20;;;;;;;;;;;;;;;12.12;65.88;100131.63;5058999;28;19928;-68
2022/05/04 03:49:09;;;;;;;;;;;;;;;12.11;65.85;100130.75;5074276;28;19983;-67
2022/05/04 03:51:59;;;;;;;;;;;;;;;12.11;65.84;100128.16;5059158;28;20066;-68
2022/05/04 03:54:46;;;;;;;;;;;;;;;12.11;65.84;100132.50;5074122;28;19943;-68
2022/05/04 03:57:34;;;;;;;;;;;;;;;12.10;65.77;100142.00;5073190;28;19928;-68
2022/05/04 04:00:27;;;;;;;;;;;;;;;12.10;65.70;100130.75;5058938;28;20006;-68
2022/05/04 04:03:17;;;;;;;;;;;;;;;12.09;65.82;100140.25;5058680;28;20016;-68
2022/05/04 04:06:01;;;;;;;;;;;;;;;12.09;65.57;100140.25;5058841;28;19978;-68
2022/05/04 04:08:48;;;;;;;;;;;;;;;12.09;65.54;100145.44;5059047;28;20422;-68
2022/05/04 04:11:37;;;;;;;;;;;;;;;12.08;65.85;100141.09;5074207;28;19975;-69
2022/05/04 04:14:27;;;;;;;;;;;;;;;12.07;65.87;100144.56;5059115;28;19928;-68
2022/05/04 04:17:16;;;;;;;;;;;;;;;12.07;65.72;100147.16;5058693;28;20398;-68
2022/05/04 04:23:12;;;;;;;;;;;;;;;12.07;65.56;100141.09;5073397;28;20409;-68
2022/05/04 04:26:05;;;;;;;;;;;;;;;12.05;65.63;100141.09;5058963;28;19928;-68
2022/05/04 04:28:49;;;;;;;;;;;;;;;12.05;66.06;100141.09;5058840;28;19978;-68
2022/05/04 04:31:33;;;;;;;;;;;;;;;12.05;65.61;100150.59;5073466;28;19971;-67
2022/05/04 04:34:17;;;;;;;;;;;;;;;12.05;65.42;100151.47;5073283;28;20020;-67
2022/05/04 04:37:06;;;;;;;;;;;;;;;12.05;65.66;100150.59;5073539;28;19927;-68
2022/05/04 04:39:56;;;;;;;;;;;;;;;12.05;65.64;100150.59;5058719;28;19970;-68
2022/05/04 04:42:48;;;;;;;;;;;;;;;12.05;65.98;100153.19;5074026;28;20401;-68
2022/05/04 04:45:32;;;;;;;;;;;;;;;12.04;65.84;100157.53;5058843;28;20303;-68
2022/05/04 04:48:21;;;;;;;;;;;;;;;12.03;65.93;100155.78;5073365;28;19946;-68
2022/05/04 04:51:04;;;;;;;;;;;;;;;12.03;65.83;100154.03;5057887;28;20337;-69
2022/05/04 04:53:57;;;;;;;;;;;;;;;12.02;65.69;100154.91;5073501;28;19932;-68
2022/05/04 04:56:50;;;;;;;;;;;;;;;12.02;65.53;100156.63;5073792;28;20421;-68
2022/05/04 04:59:34;;;;;;;;;;;;;;;12.01;65.50;100165.28;5073467;28;19974;-69
2022/05/04 05:02:21;;;;;;;;;;;;;;;12.00;65.82;100166.13;5073092;28;19990;-68
2022/05/04 05:05:10;;;;;;;;;;;;;;;12.00;65.86;100171.31;5073354;28;19987;-68
2022/05/04 05:07:57;;;;;;;;;;;;;;;12.00;65.80;100172.19;5058528;28;19927;-68
2022/05/04 05:10:49;;;;;;;;;;;;;;;11.99;65.52;100174.78;5061656;28;19981;-68
2022/05/04 05:16:06;;;;;;;;;;;;;;;11.98;65.59;100163.53;5062240;28;19928;-67
2022/05/04 05:16:38;;;;;;;;;;;;;;;11.97;65.64;100166.94;5077215;28;19974;-68
2022/05/04 05:19:27;;;;;;;;;;;;;;;11.98;65.75;100173.00;5077081;28;19927;-68
2022/05/04 05:22:17;;;;;;;;;;;;;;;11.97;65.69;100179.94;5061630;28;19928;-68
2022/05/04 05:25:01;;;;;;;;;;;;;;;11.98;65.56;100180.78;5062042;28;19931;-68
2022/05/04 05:27:48;;;;;;;;;;;;;;;11.96;65.83;100180.78;5076551;28;19927;-68
2022/05/04 05:30:35;;;;;;;;;;;;;;;11.95;65.71;100178.16;5061881;28;20035;-68
2022/05/04 05:33:19;;;;;;;;;;;;;;;11.94;65.79;100173.81;5062147;28;20038;-69
2022/05/04 05:36:15;;;;;;;;;;;;;;;11.94;65.56;100177.28;5061612;28;20319;-65
2022/05/04 05:38:58;;;;;;;;;;;;;;;11.93;65.61;100167.75;5076188;28;19927;-66
2022/05/04 05:41:45;;;;;;;;;;;;;;;11.93;65.61;100167.75;5076544;28;20292;-66
2022/05/04 05:44:37;;;;;;;;;;;;;;;11.92;65.73;100166.00;5061768;28;19974;-65
2022/05/04 05:47:24;;;;;;;;;;;;;;;11.90;65.88;100164.25;5076053;28;19927;-66
2022/05/04 05:50:08;;;;;;;;;;;;;;;11.90;65.48;100156.47;5076254;28;19927;-66
2022/05/04 05:52:53;;;;;;;;;;;;;;;11.87;65.61;100158.16;5076224;28;20298;-66
2022/05/04 05:55:39;;;;;;;;;;;;;;;11.86;65.91;100161.63;5076027;28;19927;-65
2022/05/04 05:58:26;;;;;;;;;;;;;;;11.85;65.81;100165.06;5076272;28;19928;-65
2022/05/04 06:01:13;;;;;;;;;;;;;;;11.84;65.59;100171.09;5061288;28;19943;-66
2022/05/04 06:03:59;;;;;;;;;;;;;;;11.85;66.00;100171.97;5061350;28;20325;-67
2022/05/04 06:06:43;;;;;;;;;;;;;;;11.84;65.99;100176.28;5076003;28;19927;-66
2022/05/04 06:09:29;;;;;;;;;;;;;;;11.87;65.60;100185.84;5075586;28;19927;-66
2022/05/04 06:12:19;;;;;;;;;;;;;;;11.87;66.02;100185.84;5075986;28;19928;-66
2022/05/04 06:15:06;;;;;;;;;;;;;;;11.88;65.51;100190.19;5060677;28;19970;-66
2022/05/04 06:17:50;;;;;;;;;;;;;;;11.88;65.99;100191.06;5060653;28;19926;-66
2022/05/04 06:20:34;;;;;;;;;;;;;;;11.88;66.07;100191.06;5074826;28;19927;-67
2022/05/04 06:23:20;;;;;;;;;;;;;;;11.88;66.08;100177.19;5075708;28;19927;-66
2022/05/04 06:26:10;;;;;;;;;;;;;;;11.88;65.86;100185.88;5075633;28;19927;-66
2022/05/04 06:28:59;;;;;;;;;;;;;;;11.87;65.91;100184.13;5060500;28;19927;-66
2022/05/04 06:34:49;;;;;;;;;;;;;;;11.84;65.81;100184.09;5075279;28;19927;-67
2022/05/04 06:37:33;;;;;;;;;;;;;;;11.83;65.55;100179.75;5075452;28;19942;-66
2022/05/04 06:40:25;;;;;;;;;;;;;;;11.82;66.08;100180.59;5075137;28;20059;-66
2022/05/04 06:43:13;;;;;;;;;;;;;;;11.83;65.67;100181.47;5060231;28;20034;-65
2022/05/04 06:45:59;;;;;;;;;;;;;;;11.82;65.99;100177.13;5060696;28;19927;-66
2022/05/04 06:48:45;;;;;;;;;;;;;;;11.80;65.97;100178.84;5075430;28;20311;-66
2022/05/04 06:51:35;;;;;;;;;;;;;;;11.76;65.87;100172.72;5060325;28;20399;-65
2022/05/04 06:54:24;;;;;;;;;;;;;;;11.77;65.62;100173.59;5060538;28;19927;-66
2022/05/04 06:57:11;;;;;;;;;;;;;;;11.77;65.63;100174.47;5060442;28;19928;-67
2022/05/04 07:00:00;;;;;;;;;;;;;;;11.76;66.11;100179.66;5060519;28;19931;-65
2022/05/04 07:02:50;;;;;;;;;;;;;;;11.77;65.67;100178.78;5074729;28;19932;-66
2022/05/04 07:05:40;;;;;;;;;;;;;;;11.76;65.65;100174.44;5059351;28;20010;-65
2022/05/04 07:08:24;;;;;;;;;;;;;;;11.77;65.72;100179.66;5073547;28;20468;-66
2022/05/04 07:11:08;;;;;;;;;;;;;;;11.76;65.97;100177.03;5059886;28;19966;-66
2022/05/04 07:13:57;;;;;;;;;;;;;;;11.75;66.12;100186.56;5074513;28;19927;-65
2022/05/04 07:16:49;;;;;;;;;;;;;;;11.75;66.15;100180.50;5059607;28;19927;-66
2022/05/04 07:19:34;;;;;;;;;;;;;;;11.76;65.94;100179.66;5059966;28;19927;-66
2022/05/04 07:22:21;;;;;;;;;;;;;;;11.75;65.90;100189.16;5059409;28;19927;-66
2022/05/04 07:25:08;;;;;;;;;;;;;;;11.75;65.99;100189.16;5059444;28;19947;-66
2022/05/04 07:27:59;;;;;;;;;;;;;;;11.77;66.03;100184.00;5059530;28;19966;-66
2022/05/04 07:30:48;;;;;;;;;;;;;;;11.76;65.92;100188.28;5059449;28;19928;-66
2022/05/04 07:33:33;;;;;;;;;;;;;;;11.75;66.19;100186.56;5058551;28;20399;-66
2022/05/04 07:36:16;;;;;;;;;;;;;;;11.76;65.77;100198.69;5074300;28;20394;-66
2022/05/04 07:39:03;;;;;;;;;;;;;;;11.76;66.08;100190.88;5074767;28;20429;-66
2022/05/04 07:45:08;;;;;;;;;;;;;;;11.73;65.95;100185.69;5073772;28;19926;-66
2022/05/04 07:47:58;;;;;;;;;;;;;;;11.74;65.61;100190.03;5059222;28;20011;-66
2022/05/04 07:50:48;;;;;;;;;;;;;;;11.76;65.87;100190.03;5058637;28;19927;-66
2022/05/04 07:53:37;;;;;;;;;;;;;;;11.76;65.78;100197.81;5059280;28;19942;-66
2022/05/04 07:56:25;;;;;;;;;;;;;;;11.76;65.94;100198.69;5059416;28;19926;-66
2022/05/04 07:59:08;;;;;;;;;;;;;;;11.76;65.81;100197.81;5058764;28;19927;-66
2022/05/04 08:04:58;;;;;;;;;;;;;;;11.77;65.62;100203.03;5073714;28;20018;-66
2022/05/04 08:07:47;;;;;;;;;;;;;;;11.77;65.53;100195.22;5058901;28;19965;-66
2022/05/04 08:10:34;;;;;;;;;;;;;;;11.78;66.00;100202.16;5058947;28;19927;-66
2022/05/04 08:13:21;;;;;;;;;;;;;;;11.79;66.10;100193.53;5059243;28;19971;-66
2022/05/04 08:16:13;;;;;;;;;;;;;;;11.80;65.93;100205.66;5073742;28;19931;-65
2022/05/04 08:19:03;;;;;;;;;;;;;;;11.80;66.12;100212.59;5058904;28;19927;-65
2022/05/04 08:21:47;;;;;;;;;;;;;;;11.79;65.58;100214.31;5059052;28;19927;-66
2022/05/04 08:24:31;;;;;;;;;;;;;;;11.81;66.15;100209.16;5074150;28;20390;-66
2022/05/04 08:27:15;;;;;;;;;;;;;;;11.82;66.03;100214.34;5058805;28;19927;-66
2022/05/04 08:29:59;;;;;;;;;;;;;;;11.83;65.86;100210.91;5058673;28;19928;-65
2022/05/04 08:32:44;;;;;;;;;;;;;;;11.84;66.00;100211.75;5058810;28;19927;-67
2022/05/04 08:35:33;;;;;;;;;;;;;;;11.86;65.87;100210.06;5073961;28;19927;-65
2022/05/04 08:38:28;;;;;;;;;;;;;;;11.87;66.12;100199.72;5058471;28;20303;-66
2022/05/04 08:41:18;;;;;;;;;;;;;;;11.87;66.15;100202.31;5058767;28;19943;-66
2022/05/04 08:44:05;;;;;;;;;;;;;;;11.91;66.09;100212.75;5059602;28;19927;-66
2022/05/04 08:46:55;;;;;;;;;;;;;;;11.93;66.06;100203.22;5062791;28;19927;-66
2022/05/04 08:49:43;;;;;;;;;;;;;;;11.93;66.16;100206.72;5062325;28;19928;-66
2022/05/04 08:52:30;;;;;;;;;;;;;;;11.95;66.07;100198.94;5062195;28;19942;-64
2022/05/04 08:55:16;;;;;;;;;;;;;;;11.99;65.82;100200.75;5062757;28;20437;-66
2022/05/04 08:58:00;;;;;;;;;;;;;;;12.00;65.69;100199.91;5062123;28;20291;-65
2022/05/04 09:00:47;;;;;;;;;;;;;;;12.01;66.14;100196.44;5077598;28;19928;-66
2022/05/04 09:03:34;;;;;;;;;;;;;;;12.01;66.14;100199.91;5077788;28;19966;-65
2022/05/04 09:06:32;;;;;;;;;;;;;;;12.02;65.96;100196.47;5061951;28;20367;-67
2022/05/04 09:09:21;;;;;;;;;;;;;;;12.03;65.65;100203.41;5062242;28;19932;-65
2022/05/04 09:12:06;;;;;;;;;;;;;;;12.05;65.92;100192.16;5061829;28;20352;-66
2022/05/04 09:14:49;;;;;;;;;;;;;;;12.05;65.89;100198.25;5077087;28;20024;-66
2022/05/04 09:17:40;;;;;;;;;;;;;;;12.06;65.80;100192.19;5076929;28;19926;-67
2022/05/04 09:23:33;;;;;;;;;;;;;;;12.09;66.03;100192.22;5076475;28;20027;-66
2022/05/04 09:26:23;;;;;;;;;;;;;;;12.11;65.65;100194.84;5076885;28;20290;-66
2022/05/04 09:29:12;;;;;;;;;;;;;;;12.13;65.86;100199.19;5062086;28;20383;-68
2022/05/04 09:31:59;;;;;;;;;;;;;;;12.14;65.83;100194.88;5062096;28;19927;-66
2022/05/04 09:34:48;;;;;;;;;;;;;;;12.16;65.71;100198.34;5076913;28;19958;-66
2022/05/04 09:46:48;;;;;;;;;;;;;;;12.22;66.03;100189.78;5076237;28;19969;-65
2022/05/04 09:49:34;;;;;;;;;;;;;;;12.24;65.84;100185.44;5076077;28;20401;-66
2022/05/04 09:52:28;;;;;;;;;;;;;;;12.22;65.72;100182.84;5076251;28;19983;-66
2022/05/04 09:55:13;;;;;;;;;;;;;;;12.21;65.84;100182.84;5075678;28;19927;-66
2022/05/04 09:58:03;;;;;;;;;;;;;;;12.24;65.79;100188.03;5076701;28;20019;-66
2022/05/04 10:00:51;;;;;;;;;;;;;;;12.25;65.64;100182.00;5060909;28;19928;-66
2022/05/04 10:03:37;;;;;;;;;;;;;;;12.26;65.60;100178.53;5060898;28;19933;-66
2022/05/04 10:06:23;;;;;;;;;;;;;;;12.30;65.58;100185.53;5076581;28;20019;-66
2022/05/04 10:09:08;;;;;;;;;;;;;;;12.30;65.74;100177.72;5075419;28;19973;-66
2022/05/04 10:11:57;;;;;;;;;;;;;;;12.32;65.87;100183.81;5076103;28;20016;-66
2022/05/04 10:14:43;;;;;;;;;;;;;;;12.36;65.81;100179.53;5075868;28;19928;-66
2022/05/04 10:17:30;;;;;;;;;;;;;;;12.37;66.02;100181.25;5075293;28;19928;-66
2022/05/04 10:20:18;;;;;;;;;;;;;;;12.39;65.93;100179.56;5061361;28;20394;-66
2022/05/04 10:23:08;;;;;;;;;;;;;;;12.39;65.47;100176.97;5061003;28;19926;-66
2022/05/04 10:25:56;;;;;;;;;;;;;;;12.40;65.75;100174.38;5060982;28;19928;-66
2022/05/04 10:30:30;;;;;;;;;;;;;;;12.41;65.66;100181.31;5060943;28;19927;-67
2022/05/04 10:31:53;;;;;;;;;;;;;;;12.42;65.78;100185.66;5075297;28;19947;-66
2022/05/04 10:34:43;;;;;;;;;;;;;;;12.44;65.60;100177.91;5060852;28;19927;-66
2022/05/04 10:37:27;;;;;;;;;;;;;;;12.46;65.58;100182.25;5074918;28;19942;-66
2022/05/04 10:40:11;;;;;;;;;;;;;;;12.46;65.46;100177.03;5075509;28;19928;-66
2022/05/04 10:42:56;;;;;;;;;;;;;;;12.48;65.47;100171.84;5075335;28;19943;-67
2022/05/04 10:45:41;;;;;;;;;;;;;;;12.50;65.65;100172.75;5075657;28;19927;-67
2022/05/04 10:48:27;;;;;;;;;;;;;;;12.51;65.67;100171.03;5060085;28;19974;-66
2022/05/04 10:51:12;;;;;;;;;;;;;;;12.51;65.72;100177.09;5074897;28;19928;-66
2022/05/04 10:54:09;;;;;;;;;;;;;;;12.53;65.46;100175.38;5060357;28;19974;-66
2022/05/04 10:56:56;;;;;;;;;;;;;;;12.56;65.54;100171.94;5074781;28;19943;-66
2022/05/04 10:59:42;;;;;;;;;;;;;;;12.55;65.60;100160.66;5074898;28;20016;-66
2022/05/04 11:02:36;;;;;;;;;;;;;;;12.57;65.61;100160.66;5075006;28;19929;-66
2022/05/04 11:05:43;;;;;;;;;;;;;;;12.57;65.52;100163.28;5059821;28;19927;-67
2022/05/04 11:08:33;;;;;;;;;;;;;;;12.58;65.36;100160.72;5060051;28;19926;-66
2022/05/04 11:11:21;;;;;;;;;;;;;;;12.59;65.19;100161.56;5073967;28;19926;-66
2022/05/04 11:14:10;;;;;;;;;;;;;;;12.59;65.46;100159.84;5075168;28;20410;-67
2022/05/04 11:17:02;;;;;;;;;;;;;;;12.58;65.15;100160.72;5072991;28;21692;-67
2022/05/04 11:19:47;;;;;;;;;;;;;;;12.59;65.46;100154.66;5059530;28;20399;-66
2022/05/04 11:22:31;;;;;;;;;;;;;;;12.60;65.33;100151.19;5059906;28;19966;-65
2022/05/04 11:25:15;;;;;;;;;;;;;;;12.57;65.22;100145.06;5074585;28;19928;-66
2022/05/04 11:28:04;;;;;;;;;;;;;;;12.59;65.12;100145.97;5073866;28;20275;-67
2022/05/04 11:30:48;;;;;;;;;;;;;;;12.58;65.06;100147.72;5058973;28;20306;-66
2022/05/04 11:33:34;;;;;;;;;;;;;;;12.59;65.25;100146.84;5059540;28;20296;-66
2022/05/04 11:36:24;;;;;;;;;;;;;;;12.58;65.51;100152.00;5074258;28;20467;-66
2022/05/04 11:39:31;;;;;;;;;;;;;;;12.60;65.19;100150.31;5074315;28;19974;-67
2022/05/04 11:42:15;;;;;;;;;;;;;;;12.62;64.94;100148.59;5059593;28;19927;-67
2022/05/04 11:45:01;;;;;;;;;;;;;;;12.63;65.15;100150.34;5073615;28;20279;-66
2022/05/04 11:47:51;;;;;;;;;;;;;;;12.63;65.06;100151.19;5059535;28;20086;-67
2022/05/04 11:50:46;;;;;;;;;;;;;;;12.64;65.11;100152.94;5059006;28;20374;-66
2022/05/04 11:53:38;;;;;;;;;;;;;;;12.63;65.11;100137.34;5073761;28;19951;-66
2022/05/04 11:56:28;;;;;;;;;;;;;;;12.63;64.97;100132.13;5074063;28;20352;-66
2022/05/04 11:59:17;;;;;;;;;;;;;;;12.61;64.93;100128.66;5059066;28;19943;-66
2022/05/04 12:02:05;;;;;;;;;;;;;;;12.62;64.93;100133.84;5058514;28;19927;-66
2022/05/04 12:04:52;;;;;;;;;;;;;;;12.62;65.02;100125.19;5059259;28;19932;-67
2022/05/04 12:07:39;;;;;;;;;;;;;;;12.63;65.18;100126.94;5073400;28;19931;-66
2022/05/04 12:10:31;;;;;;;;;;;;;;;12.64;64.94;100126.94;5073611;28;19928;-67
2022/05/04 12:13:21;;;;;;;;;;;;;;;12.62;64.92;100126.06;5059011;28;19927;-66
2022/05/04 12:16:09;;;;;;;;;;;;;;;12.64;65.13;100129.53;5058723;28;19927;-66
2022/05/04 12:18:58;;;;;;;;;;;;;;;12.65;64.79;100130.44;5057964;28;20461;-67
2022/05/04 12:21:45;;;;;;;;;;;;;;;12.67;64.98;100133.91;5058826;28;20058;-66
2022/05/04 12:24:31;;;;;;;;;;;;;;;12.71;64.51;100134.81;5074178;28;19928;-66
2022/05/04 12:27:19;;;;;;;;;;;;;;;12.70;64.83;100130.47;5074226;28;20461;-67
2022/05/04 12:33:09;;;;;;;;;;;;;;;12.68;64.67;100129.56;5074101;28;19927;-66
2022/05/04 12:35:57;;;;;;;;;;;;;;;12.69;64.97;100126.13;5073534;28;20042;-66
2022/05/04 12:38:50;;;;;;;;;;;;;;;12.68;64.92;100133.06;5058916;28;20013;-67
2022/05/04 12:41:37;;;;;;;;;;;;;;;12.67;64.83;100136.53;5073187;28;19927;-67
2022/05/04 12:44:21;;;;;;;;;;;;;;;12.67;64.95;100128.72;5073360;28;19966;-67
2022/05/04 12:47:11;;;;;;;;;;;;;;;12.66;64.40;100119.19;5073579;28;19927;-66
2022/05/04 12:49:58;;;;;;;;;;;;;;;12.66;64.65;100119.19;5072758;28;19927;-66
2022/05/04 12:52:45;;;;;;;;;;;;;;;12.68;64.58;100113.97;5058283;28;19974;-67
2022/05/04 12:58:35;;;;;;;;;;;;;;;12.73;64.27;100105.34;5073054;28;19927;-66
2022/05/04 13:01:26;;;;;;;;;;;;;;;12.74;64.35;100114.91;5057536;28;20058;-67
2022/05/04 13:04:15;;;;;;;;;;;;;;;12.78;64.18;100103.66;5058239;28;19927;-67
2022/05/04 13:06:59;;;;;;;;;;;;;;;12.80;64.23;100111.47;5073348;28;19975;-68
2022/05/04 13:09:48;;;;;;;;;;;;;;;12.81;64.49;100097.59;5073414;28;19927;-67
2022/05/04 13:12:37;;;;;;;;;;;;;;;12.81;64.39;100104.56;5073668;28;19943;-66
2022/05/04 13:15:27;;;;;;;;;;;;;;;12.82;64.16;100103.69;5058583;28;20018;-68
2022/05/04 13:18:16;;;;;;;;;;;;;;;12.84;64.01;100102.84;5058122;28;19969;-67
2022/05/04 13:21:12;;;;;;;;;;;;;;;12.83;63.97;100100.25;5072254;28;19963;-66
2022/05/04 13:23:58;;;;;;;;;;;;;;;12.81;64.21;100092.41;5058146;28;19970;-67
2022/05/04 13:26:45;;;;;;;;;;;;;;;12.81;64.24;100092.41;5073475;28;19942;-65
2022/05/04 13:29:29;;;;;;;;;;;;;;;12.79;64.17;100092.41;5057980;28;19927;-67
2022/05/04 13:32:18;;;;;;;;;;;;;;;12.78;64.58;100090.66;5076738;28;20291;-66
2022/05/04 13:35:08;;;;;;;;;;;;;;;12.79;64.33;100088.91;5076874;28;19926;-66
2022/05/04 13:37:52;;;;;;;;;;;;;;;12.80;64.18;100085.47;5061686;28;19958;-67
2022/05/04 13:40:41;;;;;;;;;;;;;;;12.80;64.40;100077.66;5076062;28;20342;-67
2022/05/04 13:43:32;;;;;;;;;;;;;;;12.79;64.37;100071.59;5061690;28;20475;-66
2022/05/04 13:46:19;;;;;;;;;;;;;;;12.79;63.97;100074.19;5061657;28;20036;-66
2022/05/04 13:49:05;;;;;;;;;;;;;;;12.80;64.12;100072.47;5076309;28;20054;-66
2022/05/04 13:54:52;;;;;;;;;;;;;;;12.83;64.28;100082.03;5076740;28;20399;-65
2022/05/04 13:57:44;;;;;;;;;;;;;;;12.85;64.09;100077.69;5076476;28;20429;-66
2022/05/04 14:00:31;;;;;;;;;;;;;;;12.84;64.24;100078.56;5076449;28;20430;-67
2022/05/04 14:03:20;;;;;;;;;;;;;;;12.89;64.14;100064.75;5060924;28;19975;-62
2022/05/04 14:06:07;;;;;;;;;;;;;;;13.17;63.69;100066.63;5061346;28;20299;-62
2022/05/04 14:08:54;;;;;;;;;;;;;;;13.28;63.41;100058.88;5074790;28;19927;-63
2022/05/04 14:11:38;;;;;;;;;;;;;;;13.37;62.53;100066.75;5074614;28;19928;-63
2022/05/04 14:17:30;;;;;;;;;;;;;;;13.48;62.55;100057.28;5075904;28;20310;-62
2022/05/04 14:20:14;;;;;;;;;;;;;;;13.52;62.29;100053.84;5075761;28;19942;-64
2022/05/04 14:23:01;;;;;;;;;;;;;;;13.57;61.72;100058.16;5061041;28;20375;-63
2022/05/04 14:25:50;;;;;;;;;;;;;;;13.60;61.94;100048.66;5075555;28;20009;-63
2022/05/04 14:28:34;;;;;;;;;;;;;;;13.62;62.02;100048.66;5074559;28;19927;-63
2022/05/04 14:31:24;;;;;;;;;;;;;;;13.65;61.99;100048.66;5075362;28;19959;-63
2022/05/04 14:34:11;;;;;;;;;;;;;;;13.63;62.08;100051.25;5060957;28;19973;-65
2022/05/04 14:37:00;;;;;;;;;;;;;;;13.69;61.55;100050.44;5060503;28;19966;-66
2022/05/04 14:39:49;;;;;;;;;;;;;;;13.64;61.84;100046.94;5074140;28;19927;-69
2022/05/04 14:42:35;;;;;;;;;;;;;;;13.55;61.96;100046.00;5059732;28;20394;-69
2022/05/04 14:45:19;;;;;;;;;;;;;;;13.50;62.11;100050.34;5075143;28;19990;-68
2022/05/04 14:48:03;;;;;;;;;;;;;;;13.47;61.91;100039.91;5075520;28;19927;-69
2022/05/04 14:50:52;;;;;;;;;;;;;;;13.40;61.94;100044.22;5075281;28;19927;-69
2022/05/04 14:53:36;;;;;;;;;;;;;;;13.35;62.63;100045.91;5059687;28;19930;-69
2022/05/04 14:56:25;;;;;;;;;;;;;;;13.30;62.35;100045.03;5074939;28;19974;-70
2022/05/04 14:59:18;;;;;;;;;;;;;;;13.27;62.34;100045.00;5060343;28;19927;-68
2022/05/04 15:02:04;;;;;;;;;;;;;;;13.22;62.37;100041.50;5059867;28;19977;-69
2022/05/04 15:05:03;;;;;;;;;;;;;;;13.21;62.05;100044.97;5059955;28;19943;-69